createdAt,value
2023-01-11T00:01:57.033Z,7.78
2023-01-11T00:04:29.971Z,6.78
2023-01-11T00:06:57.537Z,7.78
2023-01-11T00:09:24.280Z,7.13
2023-01-11T00:11:50.988Z,6.05
2023-01-11T00:14:17.625Z,8.20
2023-01-11T00:16:44.377Z,6.90
2023-01-11T00:19:10.957Z,9.27
2023-01-11T00:21:37.532Z,7.13
2023-01-11T00:24:04.358Z,9.10
2023-01-11T00:26:30.914Z,10.05
2023-01-11T00:28:57.529Z,7.25
2023-01-11T00:31:24.210Z,12.10
2023-01-11T00:33:50.768Z,6.90
2023-01-11T00:36:17.278Z,7.68
2023-01-11T00:38:43.872Z,11.10
2023-01-11T00:41:31.073Z,5.97
2023-01-11T00:44:16.437Z,8.52
2023-01-11T00:47:01.749Z,11.02
2023-01-11T00:49:28.727Z,9.65
2023-01-11T00:51:55.414Z,4.97
2023-01-11T00:54:22.076Z,8.43
2023-01-11T00:56:48.659Z,6.68
2023-01-11T00:59:15.461Z,7.10
2023-01-11T01:01:42.197Z,5.28
2023-01-11T01:04:08.824Z,9.35
2023-01-11T01:06:35.390Z,7.65
2023-01-11T01:09:01.985Z,7.65
2023-01-11T01:11:28.519Z,6.40
2023-01-11T01:14:13.647Z,6.68
2023-01-11T01:16:42.161Z,5.85
2023-01-11T01:19:09.120Z,7.38
2023-01-11T01:21:37.281Z,8.70
2023-01-11T01:24:04.105Z,10.32
2023-01-11T01:26:30.696Z,6.80
2023-01-11T01:28:57.261Z,6.85
2023-01-11T01:31:23.925Z,6.57
2023-01-11T01:33:50.589Z,7.30
2023-01-11T01:36:17.097Z,5.75
2023-01-11T01:38:43.701Z,6.97
2023-01-11T01:41:12.463Z,9.85
2023-01-11T01:43:59.737Z,7.50
2023-01-11T01:46:32.427Z,9.63
2023-01-11T01:49:12.738Z,8.38
2023-01-11T01:51:47.306Z,8.77
2023-01-11T01:54:18.377Z,7.82
2023-01-11T01:56:50.838Z,8.65
2023-01-11T01:59:19.723Z,3.85
2023-01-11T02:01:47.488Z,5.63
2023-01-11T02:04:25.458Z,6.20
2023-01-11T02:06:58.699Z,9.02
2023-01-11T02:09:38.631Z,6.65
2023-01-11T02:12:06.791Z,6.63
2023-01-11T02:14:35.523Z,6.63
2023-01-11T02:17:02.116Z,7.22
2023-01-11T02:19:57.281Z,6.38
2023-01-11T02:22:26.559Z,3.20
2023-01-11T02:25:02.155Z,4.60
2023-01-11T02:27:44.539Z,10.38
2023-01-11T02:30:56.860Z,4.35
2023-01-11T02:33:36.329Z,4.43
2023-01-11T02:36:31.906Z,5.25
2023-01-11T02:39:12.105Z,6.53
2023-01-11T02:42:08.539Z,4.25
2023-01-11T02:45:02.612Z,3.75
2023-01-11T02:47:46.455Z,5.00
2023-01-11T02:50:34.654Z,5.63
2023-01-11T02:53:25.504Z,7.80
2023-01-11T02:55:56.980Z,6.88
2023-01-11T02:58:27.869Z,8.13
2023-01-11T03:00:55.848Z,3.42
2023-01-11T03:03:30.514Z,4.65
2023-01-11T03:06:05.416Z,5.53
2023-01-11T03:08:45.664Z,4.55
2023-01-11T03:11:36.292Z,6.07
2023-01-11T03:14:18.807Z,4.78
2023-01-11T03:16:51.289Z,4.35
2023-01-11T03:19:30.199Z,5.65
2023-01-11T03:22:11.946Z,7.43
2023-01-11T03:24:47.440Z,5.07
2023-01-11T03:27:41.173Z,4.45
2023-01-11T03:30:14.614Z,3.92
2023-01-11T03:32:48.433Z,3.30
2023-01-11T03:35:30.719Z,3.97
2023-01-11T03:38:18.885Z,3.83
2023-01-11T03:41:11.992Z,4.38
2023-01-11T03:43:42.131Z,3.70
2023-01-11T03:46:22.690Z,4.93
2023-01-11T03:49:10.423Z,5.47
2023-01-11T03:51:42.784Z,3.60
2023-01-11T03:54:13.332Z,3.88
2023-01-11T03:56:52.227Z,4.88
2023-01-11T03:59:19.183Z,4.53
2023-01-11T04:01:45.722Z,5.03
2023-01-11T04:04:12.308Z,5.65
2023-01-11T04:06:39.657Z,5.78
2023-01-11T04:09:06.581Z,4.10
2023-01-11T04:11:33.340Z,3.97
2023-01-11T04:14:00.821Z,3.25
2023-01-11T04:16:27.536Z,4.43
2023-01-11T04:18:54.069Z,2.40
2023-01-11T04:21:20.790Z,4.45
2023-01-11T04:23:47.401Z,2.92
2023-01-11T04:26:14.028Z,3.25
2023-01-11T04:28:40.592Z,3.88
2023-01-11T04:31:07.187Z,5.80
2023-01-11T04:33:33.815Z,3.42
2023-01-11T04:36:05.146Z,4.85
2023-01-11T04:38:31.780Z,2.72
2023-01-11T04:41:18.288Z,2.45
2023-01-11T04:43:44.878Z,4.80
2023-01-11T04:46:11.539Z,4.03
2023-01-11T04:48:42.081Z,1.83
2023-01-11T04:51:09.571Z,3.58
2023-01-11T04:53:36.260Z,3.83
2023-01-11T04:56:05.159Z,3.90
2023-01-11T04:58:33.266Z,5.50
2023-01-11T05:01:00.070Z,4.20
2023-01-11T05:03:26.940Z,3.63
2023-01-11T05:05:58.055Z,3.65
2023-01-11T05:08:25.748Z,3.88
2023-01-11T05:10:53.928Z,3.17
2023-01-11T05:13:20.984Z,4.07
2023-01-11T05:15:47.974Z,3.47
2023-01-11T05:18:14.518Z,4.50
2023-01-11T05:20:41.058Z,5.40
2023-01-11T05:23:07.620Z,4.13
2023-01-11T05:25:34.168Z,3.85
2023-01-11T05:28:00.725Z,2.60
2023-01-11T05:30:27.285Z,2.58
2023-01-11T05:32:55.141Z,4.13
2023-01-11T05:35:21.719Z,3.50
2023-01-11T05:37:48.248Z,2.35
2023-01-11T05:40:14.946Z,3.15
2023-01-11T05:42:41.480Z,4.82
2023-01-11T05:45:27.222Z,3.60
2023-01-11T05:47:53.949Z,3.00
2023-01-11T05:50:20.677Z,3.67
2023-01-11T05:52:47.312Z,3.53
2023-01-11T05:55:13.930Z,3.90
2023-01-11T05:57:44.284Z,3.00
2023-01-11T06:00:12.748Z,2.63
2023-01-11T06:02:39.393Z,2.05
2023-01-11T06:05:06.667Z,4.97
2023-01-11T06:07:33.226Z,2.13
2023-01-11T06:09:59.765Z,3.22
2023-01-11T06:12:26.264Z,1.33
2023-01-11T06:14:52.854Z,2.25
2023-01-11T06:17:19.452Z,2.03
2023-01-11T06:19:46.021Z,1.65
2023-01-11T06:22:12.582Z,2.08
2023-01-11T06:24:39.137Z,3.05
2023-01-11T06:27:05.723Z,2.45
2023-01-11T06:29:32.277Z,2.28
2023-01-11T06:31:58.912Z,2.92
2023-01-11T06:34:25.617Z,2.55
2023-01-11T06:36:52.216Z,2.33
2023-01-11T06:39:19.276Z,1.63
2023-01-11T06:41:45.854Z,2.47
2023-01-11T06:44:12.492Z,2.53
2023-01-11T06:46:39.108Z,3.20
2023-01-11T06:49:05.677Z,3.17
2023-01-11T06:51:32.256Z,7.35
2023-01-11T06:53:58.788Z,1.02
2023-01-11T06:56:25.276Z,4.40
2023-01-11T06:58:52.578Z,2.30
2023-01-11T07:01:19.298Z,2.45
2023-01-11T07:03:45.998Z,1.55
2023-01-11T07:06:13.723Z,1.80
2023-01-11T07:08:40.270Z,2.03
2023-01-11T07:11:06.873Z,1.15
2023-01-11T07:13:33.447Z,2.33
2023-01-11T07:16:00.179Z,2.55
2023-01-11T07:18:26.743Z,1.63
2023-01-11T07:20:53.295Z,2.05
2023-01-11T07:23:19.929Z,1.83
2023-01-11T07:25:48.500Z,2.78
2023-01-11T07:28:15.103Z,2.15
2023-01-11T07:30:56.805Z,1.45
2023-01-11T07:33:25.741Z,1.35
2023-01-11T07:35:52.561Z,2.28
2023-01-11T07:38:19.458Z,2.97
2023-01-11T07:40:46.079Z,2.97
2023-01-11T07:43:18.082Z,2.15
2023-01-11T07:45:48.946Z,1.77
2023-01-11T07:48:20.708Z,2.10
2023-01-11T07:50:47.724Z,1.63
2023-01-11T07:53:14.434Z,2.25
2023-01-11T07:55:41.439Z,1.30
2023-01-11T07:58:11.929Z,2.17
2023-01-11T08:00:41.001Z,1.38
2023-01-11T08:03:08.048Z,0.95
2023-01-11T08:05:34.893Z,1.65
2023-01-11T08:08:01.816Z,2.38
2023-01-11T08:10:28.425Z,0.88
2023-01-11T08:13:13.757Z,1.75
2023-01-11T08:15:42.495Z,1.75
2023-01-11T08:18:11.315Z,1.55
2023-01-11T08:20:38.645Z,2.35
2023-01-11T08:23:07.071Z,2.35
2023-01-11T08:25:34.080Z,2.22
2023-01-11T08:28:02.368Z,3.30
2023-01-11T08:30:29.246Z,2.60
2023-01-11T08:32:57.391Z,1.30
2023-01-11T08:35:25.643Z,2.55
2023-01-11T08:37:52.592Z,3.70
2023-01-11T08:40:20.088Z,1.65
2023-01-11T08:42:47.221Z,1.20
2023-01-11T08:45:13.810Z,2.58
2023-01-11T08:47:40.348Z,2.35
2023-01-11T08:50:08.213Z,1.55
2023-01-11T08:52:34.871Z,1.05
2023-01-11T08:55:01.542Z,1.75
2023-01-11T08:57:28.095Z,1.60
2023-01-11T08:59:54.691Z,1.67
2023-01-11T09:02:21.259Z,2.65
2023-01-11T09:04:47.795Z,1.52
2023-01-11T09:07:14.333Z,1.85
2023-01-11T09:09:41.097Z,1.35
2023-01-11T09:12:07.779Z,1.30
2023-01-11T09:14:34.652Z,2.13
2023-01-11T09:17:01.226Z,1.67
2023-01-11T09:19:27.768Z,1.15
2023-01-11T09:21:57.189Z,2.78
2023-01-11T09:24:23.815Z,1.80
2023-01-11T09:26:50.404Z,1.08
2023-01-11T09:29:17.455Z,1.25
2023-01-11T09:31:44.032Z,1.45
2023-01-11T09:34:12.619Z,2.33
2023-01-11T09:36:40.174Z,1.65
2023-01-11T09:39:14.321Z,3.15
2023-01-11T09:42:15.019Z,3.00
2023-01-11T09:44:51.980Z,2.15
2023-01-11T09:47:30.683Z,2.17
2023-01-11T09:50:01.392Z,1.92
2023-01-11T09:52:39.960Z,2.28
2023-01-11T09:55:13.414Z,1.50
2023-01-11T09:57:42.748Z,2.97
2023-01-11T10:00:44.465Z,2.13
2023-01-11T10:03:29.904Z,1.90
2023-01-11T10:06:10.312Z,2.08
2023-01-11T10:18:32.896Z,1.60
2023-01-11T10:23:33.124Z,2.55
2023-01-11T10:26:04.877Z,1.60
2023-01-11T10:28:43.055Z,2.80
2023-01-11T10:31:43.732Z,2.88
2023-01-11T10:34:38.574Z,2.20
2023-01-11T10:37:40.127Z,1.58
2023-01-11T10:40:45.729Z,1.70
2023-01-11T10:43:22.372Z,3.00
2023-01-11T10:45:53.175Z,2.17
2023-01-11T10:48:36.906Z,2.53
2023-01-11T10:51:07.231Z,2.28
2023-01-11T10:54:01.815Z,1.83
2023-01-11T10:57:02.829Z,2.28
2023-01-11T10:59:50.852Z,2.53
2023-01-11T11:02:39.541Z,2.10
2023-01-11T11:05:22.056Z,2.25
2023-01-11T11:08:01.639Z,3.08
2023-01-11T11:10:40.391Z,2.20
2023-01-11T11:13:23.501Z,2.90
2023-01-11T11:16:09.944Z,6.53
2023-01-11T11:18:37.225Z,11.10
2023-01-11T11:21:10.578Z,4.85
2023-01-11T11:23:38.511Z,5.05
2023-01-11T11:26:06.536Z,5.60
2023-01-11T11:28:33.785Z,2.60
2023-01-11T11:31:03.783Z,2.00
2023-01-11T11:33:39.011Z,3.72
2023-01-11T11:38:39.090Z,2.50
2023-01-11T11:41:08.391Z,2.88
2023-01-11T11:43:40.220Z,2.13
2023-01-11T11:46:20.331Z,2.45
2023-01-11T11:49:18.016Z,4.63
2023-01-11T11:51:47.192Z,1.55
2023-01-11T11:54:21.566Z,1.15
2023-01-11T11:56:48.734Z,1.57
2023-01-11T11:59:20.133Z,1.45
2023-01-11T12:01:54.557Z,0.90
2023-01-11T12:04:23.866Z,2.30
2023-01-11T12:07:08.708Z,2.60
2023-01-11T12:09:36.313Z,2.27
2023-01-11T12:12:03.727Z,1.10
2023-01-11T12:14:35.894Z,1.80
2023-01-11T12:17:24.442Z,1.45
2023-01-11T12:19:51.241Z,1.40
2023-01-11T12:22:28.919Z,1.02
2023-01-11T12:25:24.863Z,1.42
2023-01-11T12:28:09.019Z,2.15
2023-01-11T12:30:50.961Z,1.55
2023-01-11T12:33:39.178Z,1.27
2023-01-11T12:36:31.370Z,1.10
2023-01-11T12:39:11.520Z,1.63
2023-01-11T12:41:53.092Z,1.00
2023-01-11T12:45:01.030Z,0.80
2023-01-11T12:47:56.365Z,2.05
2023-01-11T12:50:27.364Z,1.45
2023-01-11T12:53:12.813Z,2.45
2023-01-11T12:56:01.765Z,1.10
2023-01-11T12:58:40.056Z,2.42
2023-01-11T13:01:35.525Z,1.30
2023-01-11T13:04:33.538Z,1.15
2023-01-11T13:07:29.999Z,1.00
2023-01-11T13:10:32.224Z,1.13
2023-01-11T13:13:10.745Z,0.82
2023-01-11T13:15:46.615Z,2.35
2023-01-11T13:18:23.401Z,2.25
2023-01-11T13:21:02.578Z,1.42
2023-01-11T13:23:44.543Z,3.42
2023-01-11T13:26:42.594Z,2.15
2023-01-11T13:29:17.101Z,1.13
2023-01-11T13:31:46.024Z,0.98
2023-01-11T13:34:24.970Z,1.40
2023-01-11T13:36:57.223Z,0.80
2023-01-11T13:39:42.045Z,2.15
2023-01-11T13:42:38.410Z,1.73
2023-01-11T13:45:19.151Z,1.63
2023-01-11T13:47:56.198Z,2.00
2023-01-11T13:50:41.831Z,1.85
2023-01-11T13:55:51.720Z,2.15
2023-01-11T13:58:36.760Z,0.98
2023-01-11T14:01:14.284Z,1.15
2023-01-11T14:03:59.488Z,0.77
2023-01-11T14:06:40.989Z,0.95
2023-01-11T14:09:37.509Z,2.17
2023-01-11T14:12:33.699Z,1.45
2023-01-11T14:15:20.253Z,2.17
2023-01-11T14:18:08.904Z,1.65
2023-01-11T14:20:41.446Z,2.08
2023-01-11T14:23:15.350Z,2.05
2023-01-11T14:25:57.835Z,1.70
2023-01-11T14:28:51.480Z,1.55
2023-01-11T14:31:48.867Z,1.95
2023-01-11T14:34:49.333Z,1.40
2023-01-11T14:37:37.485Z,3.13
2023-01-11T14:40:28.163Z,3.35
2023-01-11T14:43:14.602Z,1.52
2023-01-11T14:46:05.069Z,2.78
2023-01-11T14:48:41.574Z,2.72
2023-01-11T14:51:49.991Z,1.60
2023-01-11T14:54:31.215Z,1.77
2023-01-11T14:56:59.300Z,2.85
2023-01-11T14:59:28.955Z,2.05
2023-01-11T15:02:04.998Z,3.78
2023-01-11T15:04:55.485Z,2.58
2023-01-11T15:07:31.302Z,3.22
2023-01-11T15:10:00.011Z,4.20
2023-01-11T15:12:35.613Z,3.70
2023-01-11T15:15:14.046Z,4.80
2023-01-11T15:18:13.801Z,6.25
2023-01-11T15:20:57.836Z,7.13
2023-01-11T15:23:25.679Z,3.65
2023-01-11T15:26:01.821Z,9.82
2023-01-11T15:28:42.771Z,7.38
2023-01-11T15:31:29.923Z,6.35
2023-01-11T15:34:02.394Z,7.25
2023-01-11T15:36:53.372Z,6.72
2023-01-11T15:39:31.837Z,9.02
2023-01-11T15:42:36.533Z,10.82
2023-01-11T15:45:33.506Z,11.35
2023-01-11T15:48:27.618Z,9.45
2023-01-11T15:51:06.058Z,7.28
2023-01-11T15:54:10.545Z,7.25
2023-01-11T15:57:02.328Z,7.78
2023-01-11T15:59:50.042Z,8.65
2023-01-11T16:02:47.980Z,6.28
2023-01-11T16:05:43.984Z,11.38
2023-01-11T16:11:05.944Z,10.00
2023-01-11T16:13:48.374Z,9.48
2023-01-11T16:16:15.098Z,9.43
2023-01-11T16:18:49.555Z,9.18
2023-01-11T16:21:18.984Z,7.88
2023-01-11T16:23:46.576Z,12.43
2023-01-11T16:26:19.734Z,11.48
2023-01-11T16:28:56.450Z,9.90
2023-01-11T16:31:23.440Z,10.43
2023-01-11T16:33:51.705Z,11.65
2023-01-11T16:36:21.090Z,8.07
2023-01-11T16:38:54.083Z,8.23
2023-01-11T16:41:21.712Z,13.38
2023-01-11T16:43:54.184Z,11.30
2023-01-11T16:46:46.473Z,10.05
2023-01-11T16:49:17.979Z,11.27
2023-01-11T16:51:45.374Z,12.98
2023-01-11T16:54:26.341Z,9.98
2023-01-11T16:56:53.826Z,10.52
2023-01-11T16:59:27.110Z,9.98
2023-01-11T17:02:03.685Z,15.55
2023-01-11T17:04:48.156Z,11.75
2023-01-11T17:07:20.779Z,11.43
2023-01-11T17:09:47.616Z,11.85
2023-01-11T17:12:32.279Z,12.60
2023-01-11T17:15:28.781Z,8.02
2023-01-11T17:17:55.352Z,8.50
2023-01-11T17:20:28.630Z,9.75
2023-01-11T17:22:56.284Z,10.80
2023-01-11T17:25:44.319Z,13.90
2023-01-11T17:28:18.364Z,12.38
2023-01-11T17:30:48.018Z,18.25
2023-01-11T17:33:33.260Z,11.98
2023-01-11T17:36:00.395Z,14.98
2023-01-11T17:38:28.306Z,15.68
2023-01-11T17:41:01.031Z,14.80
2023-01-11T17:43:48.179Z,9.80
2023-01-11T17:46:26.285Z,9.75
2023-01-11T17:48:58.413Z,11.95
2023-01-11T17:51:31.337Z,15.98
2023-01-11T17:53:59.091Z,14.75
2023-01-11T17:56:41.672Z,11.65
2023-01-11T17:59:23.292Z,14.23
2023-01-11T18:01:57.539Z,12.50
2023-01-11T18:04:25.404Z,13.53
2023-01-11T18:07:18.430Z,15.43
2023-01-11T18:09:58.169Z,13.57
2023-01-11T18:12:33.717Z,10.68
2023-01-11T18:15:02.769Z,12.60
2023-01-11T18:17:32.544Z,10.90
2023-01-11T18:20:00.478Z,8.75
2023-01-11T18:22:37.116Z,13.88
2023-01-11T18:25:26.800Z,12.68
2023-01-11T18:28:21.334Z,17.77
2023-01-11T18:30:53.717Z,13.00
2023-01-11T18:33:23.650Z,14.73
2023-01-11T18:35:58.830Z,11.45
2023-01-11T18:40:56.887Z,14.90
2023-01-11T18:43:29.905Z,12.93
2023-01-11T18:45:56.930Z,13.60
2023-01-11T18:48:23.756Z,12.15
2023-01-11T18:50:51.973Z,9.77
2023-01-11T18:53:18.933Z,10.43
2023-01-11T18:55:46.387Z,14.43
2023-01-11T18:58:13.128Z,8.40
2023-01-11T19:00:41.246Z,10.32
2023-01-11T19:03:11.127Z,10.82
2023-01-11T19:05:37.991Z,11.07
2023-01-11T19:08:04.947Z,12.30
2023-01-11T19:10:31.669Z,9.65
2023-01-11T19:12:58.670Z,12.82
2023-01-11T19:15:25.482Z,11.50
2023-01-11T19:17:52.208Z,13.63
2023-01-11T19:20:18.851Z,8.80
2023-01-11T19:22:45.461Z,9.23
2023-01-11T19:25:12.169Z,8.75
2023-01-11T19:27:39.122Z,11.20
2023-01-11T19:30:06.907Z,10.52
2023-01-11T19:32:33.600Z,10.07
2023-01-11T19:35:00.505Z,12.52
2023-01-11T19:37:29.862Z,10.98
2023-01-11T19:39:56.490Z,11.00
2023-01-11T19:42:23.733Z,14.00
2023-01-11T19:44:51.227Z,11.85
2023-01-11T19:47:17.955Z,8.15
2023-01-11T19:49:44.672Z,10.68
2023-01-11T19:52:13.704Z,11.18
2023-01-11T19:54:42.734Z,12.43
2023-01-11T19:57:15.084Z,13.20
2023-01-11T19:59:42.240Z,14.77
2023-01-11T20:02:10.957Z,13.80
2023-01-11T20:04:37.515Z,11.85
2023-01-11T20:07:04.701Z,14.52
2023-01-11T20:09:31.348Z,10.25
2023-01-11T20:11:58.790Z,11.43
2023-01-11T20:14:25.474Z,9.90
2023-01-11T20:16:52.076Z,14.13
2023-01-11T20:19:18.705Z,10.70
2023-01-11T20:21:45.360Z,11.77
2023-01-11T20:28:42.017Z,12.07
2023-01-11T20:45:39.531Z,12.43
2023-01-11T20:46:51.853Z,12.88
2023-01-11T20:49:43.111Z,9.52
2023-01-11T21:00:46.500Z,11.02
2023-01-11T21:03:13.153Z,14.80
2023-01-11T21:05:39.819Z,11.18
2023-01-11T21:08:06.367Z,15.23
2023-01-11T21:10:32.917Z,9.13
2023-01-11T21:13:02.410Z,10.40
2023-01-11T21:15:29.001Z,10.70
2023-01-11T21:17:55.563Z,11.23
2023-01-11T21:20:22.109Z,9.63
2023-01-11T21:22:48.614Z,12.95
2023-01-11T21:25:17.054Z,11.18
2023-01-11T21:27:43.629Z,12.45
2023-01-11T21:30:10.811Z,15.00
2023-01-11T21:32:37.351Z,9.95
2023-01-11T21:35:04.675Z,9.52
2023-01-11T21:37:31.288Z,11.63
2023-01-11T21:39:57.810Z,12.57
2023-01-11T21:42:24.379Z,13.52
2023-01-11T21:44:50.893Z,9.43
2023-01-11T21:47:19.462Z,12.00
2023-01-11T21:49:45.952Z,10.80
2023-01-11T21:52:12.549Z,11.00
2023-01-11T21:54:39.115Z,11.32
2023-01-11T21:57:05.742Z,10.95
2023-01-11T21:59:33.633Z,8.52
2023-01-11T22:02:00.240Z,13.00
2023-01-11T22:04:26.832Z,8.95
2023-01-11T22:06:58.588Z,11.13
2023-01-11T22:09:27.346Z,10.63
2023-01-11T22:11:54.238Z,12.43
2023-01-11T22:14:21.526Z,8.70
2023-01-11T22:16:48.164Z,10.80
2023-01-11T22:19:14.929Z,10.60
2023-01-11T22:21:41.600Z,9.55
2023-01-11T22:24:11.569Z,10.80
2023-01-11T22:26:39.209Z,14.00
2023-01-11T22:29:16.471Z,11.18
2023-01-11T22:31:54.462Z,10.55
2023-01-11T22:34:21.892Z,9.05
2023-01-11T22:36:48.848Z,12.52
2023-01-11T22:39:18.423Z,11.95
2023-01-11T22:41:46.094Z,11.77
2023-01-11T22:44:13.361Z,8.98
2023-01-11T22:46:40.435Z,15.13
2023-01-11T22:49:07.266Z,10.75
2023-01-11T22:51:34.480Z,11.63
2023-01-11T22:54:01.108Z,13.82
2023-01-11T22:56:29.160Z,14.15
2023-01-11T22:58:56.997Z,8.25
2023-01-11T23:01:27.574Z,12.25
2023-01-11T23:03:55.546Z,8.05
2023-01-11T23:06:30.906Z,11.05
2023-01-11T23:08:58.428Z,13.98
2023-01-11T23:11:46.181Z,12.70
2023-01-11T23:14:18.322Z,8.20
2023-01-11T23:16:46.556Z,7.93
2023-01-11T23:19:15.978Z,10.07
2023-01-11T23:21:44.668Z,11.20
2023-01-11T23:24:12.797Z,13.60
2023-01-11T23:26:39.995Z,12.93
2023-01-11T23:29:06.657Z,10.60
2023-01-11T23:31:33.430Z,15.55
2023-01-11T23:34:01.601Z,9.02
2023-01-11T23:36:33.743Z,12.50
2023-01-11T23:39:00.564Z,11.30
2023-01-11T23:41:46.217Z,11.77
2023-01-11T23:44:15.113Z,13.55
2023-01-11T23:47:01.097Z,10.20
2023-01-11T23:49:29.102Z,14.07
2023-01-11T23:51:56.563Z,14.52
2023-01-11T23:54:25.794Z,13.40
2023-01-11T23:56:52.360Z,12.90
2023-01-11T23:59:18.872Z,16.23
